sensor_id;sensor_type;location;lat;lon;timestamp;P1;durP1;ratioP1;P2;durP2;ratioP2
11797;SDS011;5956;51.428;6.682;2023-03-01T00:01:36;8.20;;;6.80;;
11797;SDS011;5956;51.428;6.682;2023-03-01T00:04:03;9.30;;;7.17;;
11797;SDS011;5956;51.428;6.682;2023-03-01T00:06:29;8.90;;;7.33;;
11797;SDS011;5956;51.428;6.682;2023-03-01T00:08:56;9.33;;;7.50;;
11797;SDS011;5956;51.428;6.682;2023-03-01T00:11:23;8.80;;;7.90;;
11797;SDS011;5956;51.428;6.682;2023-03-01T00:13:51;11.50;;;8.03;;
11797;SDS011;5956;51.428;6.682;2023-03-01T00:16:20;10.97;;;7.93;;
11797;SDS011;5956;51.428;6.682;2023-03-01T00:18:47;11.10;;;8.17;;
11797;SDS011;5956;51.428;6.682;2023-03-01T00:21:14;8.90;;;7.50;;
11797;SDS011;5956;51.428;6.682;2023-03-01T00:23:40;11.80;;;8.57;;
11797;SDS011;5956;51.428;6.682;2023-03-01T00:26:07;12.60;;;8.50;;
11797;SDS011;5956;51.428;6.682;2023-03-01T00:28:35;12.73;;;8.23;;
11797;SDS011;5956;51.428;6.682;2023-03-01T00:31:03;11.20;;;8.93;;
11797;SDS011;5956;51.428;6.682;2023-03-01T00:33:31;9.87;;;7.53;;
11797;SDS011;5956;51.428;6.682;2023-03-01T00:35:58;14.23;;;9.50;;
11797;SDS011;5956;51.428;6.682;2023-03-01T00:38:25;11.43;;;8.27;;
11797;SDS011;5956;51.428;6.682;2023-03-01T00:40:51;12.70;;;9.90;;
11797;SDS011;5956;51.428;6.682;2023-03-01T00:43:18;10.13;;;8.67;;
11797;SDS011;5956;51.428;6.682;2023-03-01T00:45:44;11.00;;;8.57;;
11797;SDS011;5956;51.428;6.682;2023-03-01T00:48:11;10.53;;;8.00;;
11797;SDS011;5956;51.428;6.682;2023-03-01T00:50:39;10.77;;;7.27;;
11797;SDS011;5956;51.428;6.682;2023-03-01T00:53:05;10.37;;;7.40;;
11797;SDS011;5956;51.428;6.682;2023-03-01T00:55:32;7.40;;;6.67;;
11797;SDS011;5956;51.428;6.682;2023-03-01T00:57:58;8.50;;;7.17;;
11797;SDS011;5956;51.428;6.682;2023-03-01T01:00:25;7.50;;;6.80;;
11797;SDS011;5956;51.428;6.682;2023-03-01T01:02:52;8.50;;;6.77;;
11797;SDS011;5956;51.428;6.682;2023-03-01T01:05:19;8.97;;;6.47;;
11797;SDS011;5956;51.428;6.682;2023-03-01T01:07:47;8.57;;;7.23;;
11797;SDS011;5956;51.428;6.682;2023-03-01T01:10:14;10.07;;;7.00;;
11797;SDS011;5956;51.428;6.682;2023-03-01T01:12:42;7.43;;;6.70;;
11797;SDS011;5956;51.428;6.682;2023-03-01T01:15:09;7.27;;;6.50;;
11797;SDS011;5956;51.428;6.682;2023-03-01T01:17:38;7.87;;;7.03;;
11797;SDS011;5956;51.428;6.682;2023-03-01T01:20:04;9.17;;;7.33;;
11797;SDS011;5956;51.428;6.682;2023-03-01T01:22:31;8.00;;;7.17;;
11797;SDS011;5956;51.428;6.682;2023-03-01T01:24:59;8.17;;;7.23;;
11797;SDS011;5956;51.428;6.682;2023-03-01T01:27:25;8.70;;;7.87;;
11797;SDS011;5956;51.428;6.682;2023-03-01T01:29:52;11.77;;;7.57;;
11797;SDS011;5956;51.428;6.682;2023-03-01T01:32:19;10.80;;;7.13;;
11797;SDS011;5956;51.428;6.682;2023-03-01T01:34:45;8.23;;;7.27;;
11797;SDS011;5956;51.428;6.682;2023-03-01T01:37:12;8.30;;;7.53;;
11797;SDS011;5956;51.428;6.682;2023-03-01T01:39:39;8.80;;;7.90;;
11797;SDS011;5956;51.428;6.682;2023-03-01T01:42:08;10.13;;;7.30;;
11797;SDS011;5956;51.428;6.682;2023-03-01T01:44:38;7.90;;;7.10;;
11797;SDS011;5956;51.428;6.682;2023-03-01T01:47:05;7.60;;;6.87;;
11797;SDS011;5956;51.428;6.682;2023-03-01T01:49:33;8.47;;;7.33;;
11797;SDS011;5956;51.428;6.682;2023-03-01T01:52:04;8.77;;;7.83;;
11797;SDS011;5956;51.428;6.682;2023-03-01T01:54:35;10.40;;;7.00;;
11797;SDS011;5956;51.428;6.682;2023-03-01T01:57:03;11.17;;;7.60;;
11797;SDS011;5956;51.428;6.682;2023-03-01T01:59:33;11.00;;;7.30;;
11797;SDS011;5956;51.428;6.682;2023-03-01T02:02:00;8.67;;;7.07;;
11797;SDS011;5956;51.428;6.682;2023-03-01T02:04:28;9.40;;;7.67;;
11797;SDS011;5956;51.428;6.682;2023-03-01T02:06:56;9.63;;;8.13;;
11797;SDS011;5956;51.428;6.682;2023-03-01T02:09:24;8.83;;;7.00;;
11797;SDS011;5956;51.428;6.682;2023-03-01T02:11:51;9.90;;;7.67;;
11797;SDS011;5956;51.428;6.682;2023-03-01T02:14:18;8.20;;;7.40;;
11797;SDS011;5956;51.428;6.682;2023-03-01T02:16:46;8.93;;;7.37;;
11797;SDS011;5956;51.428;6.682;2023-03-01T02:19:16;9.40;;;8.00;;
11797;SDS011;5956;51.428;6.682;2023-03-01T02:21:46;8.83;;;7.93;;
11797;SDS011;5956;51.428;6.682;2023-03-01T02:24:17;11.30;;;8.60;;
11797;SDS011;5956;51.428;6.682;2023-03-01T02:26:49;9.93;;;8.57;;
11797;SDS011;5956;51.428;6.682;2023-03-01T02:29:19;10.97;;;8.70;;
11797;SDS011;5956;51.428;6.682;2023-03-01T02:31:46;10.37;;;8.93;;
11797;SDS011;5956;51.428;6.682;2023-03-01T02:34:13;10.00;;;9.00;;
11797;SDS011;5956;51.428;6.682;2023-03-01T02:36:42;9.57;;;8.57;;
11797;SDS011;5956;51.428;6.682;2023-03-01T02:39:12;11.03;;;8.00;;
11797;SDS011;5956;51.428;6.682;2023-03-01T02:41:41;9.43;;;7.17;;
11797;SDS011;5956;51.428;6.682;2023-03-01T02:44:09;8.53;;;7.73;;
11797;SDS011;5956;51.428;6.682;2023-03-01T02:46:42;8.87;;;7.43;;
11797;SDS011;5956;51.428;6.682;2023-03-01T02:51:54;12.77;;;8.10;;
11797;SDS011;5956;51.428;6.682;2023-03-01T02:54:28;11.67;;;8.80;;
11797;SDS011;5956;51.428;6.682;2023-03-01T02:56:56;9.47;;;7.80;;
11797;SDS011;5956;51.428;6.682;2023-03-01T02:59:24;9.27;;;7.73;;
11797;SDS011;5956;51.428;6.682;2023-03-01T03:01:52;10.60;;;7.63;;
11797;SDS011;5956;51.428;6.682;2023-03-01T03:04:19;12.03;;;7.77;;
11797;SDS011;5956;51.428;6.682;2023-03-01T03:06:46;10.97;;;8.57;;
11797;SDS011;5956;51.428;6.682;2023-03-01T03:09:13;9.23;;;8.07;;
11797;SDS011;5956;51.428;6.682;2023-03-01T03:11:40;8.37;;;7.43;;
11797;SDS011;5956;51.428;6.682;2023-03-01T03:14:07;9.17;;;8.10;;
11797;SDS011;5956;51.428;6.682;2023-03-01T03:16:39;9.23;;;8.37;;
11797;SDS011;5956;51.428;6.682;2023-03-01T03:19:07;9.27;;;8.27;;
11797;SDS011;5956;51.428;6.682;2023-03-01T03:21:34;9.87;;;8.07;;
11797;SDS011;5956;51.428;6.682;2023-03-01T03:24:01;10.40;;;8.30;;
11797;SDS011;5956;51.428;6.682;2023-03-01T03:26:27;11.13;;;8.40;;
11797;SDS011;5956;51.428;6.682;2023-03-01T03:28:54;10.97;;;7.90;;
11797;SDS011;5956;51.428;6.682;2023-03-01T03:31:20;10.10;;;7.90;;
11797;SDS011;5956;51.428;6.682;2023-03-01T03:33:47;9.70;;;8.37;;
11797;SDS011;5956;51.428;6.682;2023-03-01T03:36:16;10.13;;;8.37;;
11797;SDS011;5956;51.428;6.682;2023-03-01T03:38:43;10.40;;;8.57;;
11797;SDS011;5956;51.428;6.682;2023-03-01T03:41:10;10.07;;;7.93;;
11797;SDS011;5956;51.428;6.682;2023-03-01T03:43:38;10.90;;;8.13;;
11797;SDS011;5956;51.428;6.682;2023-03-01T03:46:06;8.97;;;7.90;;
11797;SDS011;5956;51.428;6.682;2023-03-01T03:48:33;10.17;;;8.47;;
11797;SDS011;5956;51.428;6.682;2023-03-01T03:51:00;13.50;;;9.03;;
11797;SDS011;5956;51.428;6.682;2023-03-01T03:53:28;9.00;;;8.10;;
11797;SDS011;5956;51.428;6.682;2023-03-01T03:55:55;9.83;;;8.60;;
11797;SDS011;5956;51.428;6.682;2023-03-01T03:58:22;11.07;;;8.40;;
11797;SDS011;5956;51.428;6.682;2023-03-01T04:00:51;13.47;;;9.40;;
11797;SDS011;5956;51.428;6.682;2023-03-01T04:03:18;10.37;;;8.77;;
11797;SDS011;5956;51.428;6.682;2023-03-01T04:05:46;10.37;;;8.63;;
11797;SDS011;5956;51.428;6.682;2023-03-01T04:08:15;12.37;;;9.50;;
11797;SDS011;5956;51.428;6.682;2023-03-01T04:10:47;10.60;;;8.43;;
11797;SDS011;5956;51.428;6.682;2023-03-01T04:13:17;11.30;;;10.07;;
11797;SDS011;5956;51.428;6.682;2023-03-01T04:15:45;10.67;;;8.63;;
11797;SDS011;5956;51.428;6.682;2023-03-01T04:18:13;10.33;;;9.33;;
11797;SDS011;5956;51.428;6.682;2023-03-01T04:20:40;11.47;;;9.40;;
11797;SDS011;5956;51.428;6.682;2023-03-01T04:23:07;12.53;;;9.17;;
11797;SDS011;5956;51.428;6.682;2023-03-01T04:25:38;10.07;;;8.93;;
11797;SDS011;5956;51.428;6.682;2023-03-01T04:28:07;11.53;;;9.63;;
11797;SDS011;5956;51.428;6.682;2023-03-01T04:30:34;11.43;;;9.23;;
11797;SDS011;5956;51.428;6.682;2023-03-01T04:33:01;12.43;;;9.67;;
11797;SDS011;5956;51.428;6.682;2023-03-01T04:35:28;11.70;;;9.87;;
11797;SDS011;5956;51.428;6.682;2023-03-01T04:37:55;16.13;;;10.93;;
11797;SDS011;5956;51.428;6.682;2023-03-01T04:40:21;16.10;;;10.03;;
11797;SDS011;5956;51.428;6.682;2023-03-01T04:42:48;16.93;;;11.13;;
11797;SDS011;5956;51.428;6.682;2023-03-01T04:45:16;13.67;;;9.97;;
11797;SDS011;5956;51.428;6.682;2023-03-01T04:47:43;10.37;;;9.33;;
11797;SDS011;5956;51.428;6.682;2023-03-01T04:50:11;10.23;;;9.23;;
11797;SDS011;5956;51.428;6.682;2023-03-01T04:52:38;13.33;;;10.10;;
11797;SDS011;5956;51.428;6.682;2023-03-01T04:55:05;10.20;;;8.40;;
11797;SDS011;5956;51.428;6.682;2023-03-01T04:57:32;9.80;;;8.80;;
11797;SDS011;5956;51.428;6.682;2023-03-01T04:59:58;9.57;;;8.57;;
11797;SDS011;5956;51.428;6.682;2023-03-01T05:02:26;10.43;;;9.00;;
11797;SDS011;5956;51.428;6.682;2023-03-01T05:04:53;9.60;;;8.60;;
11797;SDS011;5956;51.428;6.682;2023-03-01T05:07:22;10.57;;;9.50;;
11797;SDS011;5956;51.428;6.682;2023-03-01T05:09:50;11.17;;;8.97;;
11797;SDS011;5956;51.428;6.682;2023-03-01T05:12:16;9.80;;;8.67;;
11797;SDS011;5956;51.428;6.682;2023-03-01T05:14:43;10.27;;;8.70;;
11797;SDS011;5956;51.428;6.682;2023-03-01T05:17:09;10.80;;;9.70;;
11797;SDS011;5956;51.428;6.682;2023-03-01T05:19:37;10.70;;;9.33;;
11797;SDS011;5956;51.428;6.682;2023-03-01T05:22:04;10.83;;;9.60;;
11797;SDS011;5956;51.428;6.682;2023-03-01T05:24:31;15.70;;;9.87;;
11797;SDS011;5956;51.428;6.682;2023-03-01T05:26:58;12.30;;;10.40;;
11797;SDS011;5956;51.428;6.682;2023-03-01T05:29:25;15.77;;;9.77;;
11797;SDS011;5956;51.428;6.682;2023-03-01T05:31:52;12.60;;;9.53;;
11797;SDS011;5956;51.428;6.682;2023-03-01T05:34:22;11.43;;;9.30;;
11797;SDS011;5956;51.428;6.682;2023-03-01T05:36:50;13.87;;;8.97;;
11797;SDS011;5956;51.428;6.682;2023-03-01T05:39:19;13.03;;;9.60;;
11797;SDS011;5956;51.428;6.682;2023-03-01T05:41:47;10.20;;;8.90;;
11797;SDS011;5956;51.428;6.682;2023-03-01T05:44:14;11.47;;;9.10;;
11797;SDS011;5956;51.428;6.682;2023-03-01T05:46:41;10.00;;;9.03;;
11797;SDS011;5956;51.428;6.682;2023-03-01T05:49:07;10.53;;;8.93;;
11797;SDS011;5956;51.428;6.682;2023-03-01T05:51:34;11.97;;;8.87;;
11797;SDS011;5956;51.428;6.682;2023-03-01T05:54:02;9.87;;;8.87;;
11797;SDS011;5956;51.428;6.682;2023-03-01T05:56:32;10.90;;;9.30;;
11797;SDS011;5956;51.428;6.682;2023-03-01T05:58:58;11.00;;;8.90;;
11797;SDS011;5956;51.428;6.682;2023-03-01T06:01:25;11.43;;;9.03;;
11797;SDS011;5956;51.428;6.682;2023-03-01T06:03:51;18.40;;;9.73;;
11797;SDS011;5956;51.428;6.682;2023-03-01T06:06:18;12.50;;;10.07;;
11797;SDS011;5956;51.428;6.682;2023-03-01T06:08:44;11.23;;;9.47;;
11797;SDS011;5956;51.428;6.682;2023-03-01T06:11:12;11.53;;;9.47;;
11797;SDS011;5956;51.428;6.682;2023-03-01T06:13:40;10.43;;;9.13;;
11797;SDS011;5956;51.428;6.682;2023-03-01T06:16:07;10.13;;;8.93;;
11797;SDS011;5956;51.428;6.682;2023-03-01T06:18:33;12.93;;;9.93;;
11797;SDS011;5956;51.428;6.682;2023-03-01T06:21:00;12.87;;;8.90;;
11797;SDS011;5956;51.428;6.682;2023-03-01T06:23:26;8.27;;;6.13;;
11797;SDS011;5956;51.428;6.682;2023-03-01T06:25:53;10.33;;;9.23;;
11797;SDS011;5956;51.428;6.682;2023-03-01T06:28:21;9.33;;;8.33;;
11797;SDS011;5956;51.428;6.682;2023-03-01T06:30:48;10.93;;;8.83;;
11797;SDS011;5956;51.428;6.682;2023-03-01T06:33:14;9.23;;;8.27;;
11797;SDS011;5956;51.428;6.682;2023-03-01T06:35:41;10.20;;;9.00;;
11797;SDS011;5956;51.428;6.682;2023-03-01T06:38:07;11.47;;;8.90;;
11797;SDS011;5956;51.428;6.682;2023-03-01T06:40:33;11.90;;;8.50;;
11797;SDS011;5956;51.428;6.682;2023-03-01T06:43:01;10.00;;;9.00;;
11797;SDS011;5956;51.428;6.682;2023-03-01T06:45:29;9.87;;;8.87;;
11797;SDS011;5956;51.428;6.682;2023-03-01T06:48:03;10.13;;;9.17;;
11797;SDS011;5956;51.428;6.682;2023-03-01T06:50:30;13.50;;;9.70;;
11797;SDS011;5956;51.428;6.682;2023-03-01T06:52:56;10.83;;;9.57;;
11797;SDS011;5956;51.428;6.682;2023-03-01T06:55:23;12.43;;;9.93;;
11797;SDS011;5956;51.428;6.682;2023-03-01T06:57:53;10.17;;;9.27;;
11797;SDS011;5956;51.428;6.682;2023-03-01T07:00:20;10.90;;;9.53;;
11797;SDS011;5956;51.428;6.682;2023-03-01T07:02:48;9.63;;;8.73;;
11797;SDS011;5956;51.428;6.682;2023-03-01T07:05:15;13.97;;;9.73;;
11797;SDS011;5956;51.428;6.682;2023-03-01T07:07:41;12.00;;;9.70;;
11797;SDS011;5956;51.428;6.682;2023-03-01T07:10:09;15.93;;;10.87;;
11797;SDS011;5956;51.428;6.682;2023-03-01T07:12:36;11.70;;;9.80;;
11797;SDS011;5956;51.428;6.682;2023-03-01T07:15:03;11.67;;;8.50;;
11797;SDS011;5956;51.428;6.682;2023-03-01T07:17:30;11.57;;;10.43;;
11797;SDS011;5956;51.428;6.682;2023-03-01T07:19:58;13.47;;;10.70;;
11797;SDS011;5956;51.428;6.682;2023-03-01T07:22:24;15.27;;;10.30;;
11797;SDS011;5956;51.428;6.682;2023-03-01T07:24:51;14.43;;;10.23;;
11797;SDS011;5956;51.428;6.682;2023-03-01T07:27:17;14.03;;;10.10;;
11797;SDS011;5956;51.428;6.682;2023-03-01T07:29:43;15.80;;;10.37;;
11797;SDS011;5956;51.428;6.682;2023-03-01T07:32:10;15.50;;;9.50;;
11797;SDS011;5956;51.428;6.682;2023-03-01T07:34:37;14.27;;;11.30;;
11797;SDS011;5956;51.428;6.682;2023-03-01T07:37:05;11.67;;;9.60;;
11797;SDS011;5956;51.428;6.682;2023-03-01T07:39:31;11.77;;;10.30;;
11797;SDS011;5956;51.428;6.682;2023-03-01T07:41:58;12.00;;;10.07;;
11797;SDS011;5956;51.428;6.682;2023-03-01T07:44:24;14.47;;;9.97;;
11797;SDS011;5956;51.428;6.682;2023-03-01T07:46:51;14.97;;;9.87;;
11797;SDS011;5956;51.428;6.682;2023-03-01T07:49:21;11.70;;;9.53;;
11797;SDS011;5956;51.428;6.682;2023-03-01T07:51:47;14.53;;;10.10;;
11797;SDS011;5956;51.428;6.682;2023-03-01T07:54:15;13.53;;;9.83;;
11797;SDS011;5956;51.428;6.682;2023-03-01T07:56:43;12.10;;;10.77;;
11797;SDS011;5956;51.428;6.682;2023-03-01T07:59:09;11.80;;;10.60;;
11797;SDS011;5956;51.428;6.682;2023-03-01T08:01:36;12.53;;;10.03;;
11797;SDS011;5956;51.428;6.682;2023-03-01T08:04:02;14.30;;;10.03;;
11797;SDS011;5956;51.428;6.682;2023-03-01T08:06:33;15.97;;;10.20;;
11797;SDS011;5956;51.428;6.682;2023-03-01T08:08:59;10.87;;;9.70;;
11797;SDS011;5956;51.428;6.682;2023-03-01T08:11:27;15.57;;;11.40;;
11797;SDS011;5956;51.428;6.682;2023-03-01T08:13:54;12.87;;;10.37;;
11797;SDS011;5956;51.428;6.682;2023-03-01T08:16:21;12.10;;;9.93;;
11797;SDS011;5956;51.428;6.682;2023-03-01T08:18:48;10.63;;;9.53;;
11797;SDS011;5956;51.428;6.682;2023-03-01T08:21:15;12.80;;;9.90;;
11797;SDS011;5956;51.428;6.682;2023-03-01T08:23:42;13.13;;;10.13;;
11797;SDS011;5956;51.428;6.682;2023-03-01T08:26:09;13.23;;;10.43;;
11797;SDS011;5956;51.428;6.682;2023-03-01T08:28:38;10.53;;;9.43;;
11797;SDS011;5956;51.428;6.682;2023-03-01T08:31:13;11.23;;;10.07;;
11797;SDS011;5956;51.428;6.682;2023-03-01T08:33:40;14.43;;;9.33;;
11797;SDS011;5956;51.428;6.682;2023-03-01T08:36:06;12.90;;;9.73;;
11797;SDS011;5956;51.428;6.682;2023-03-01T08:38:33;10.83;;;9.73;;
11797;SDS011;5956;51.428;6.682;2023-03-01T08:41:00;14.03;;;9.77;;
11797;SDS011;5956;51.428;6.682;2023-03-01T08:43:27;15.37;;;9.97;;
11797;SDS011;5956;51.428;6.682;2023-03-01T08:45:55;11.60;;;10.00;;
11797;SDS011;5956;51.428;6.682;2023-03-01T08:48:21;13.77;;;9.93;;
11797;SDS011;5956;51.428;6.682;2023-03-01T08:50:48;13.57;;;10.50;;
11797;SDS011;5956;51.428;6.682;2023-03-01T08:53:14;11.67;;;9.00;;
11797;SDS011;5956;51.428;6.682;2023-03-01T08:55:41;12.30;;;9.10;;
11797;SDS011;5956;51.428;6.682;2023-03-01T08:58:07;17.10;;;9.53;;
11797;SDS011;5956;51.428;6.682;2023-03-01T09:00:34;11.03;;;9.53;;
11797;SDS011;5956;51.428;6.682;2023-03-01T09:03:02;9.87;;;8.73;;
11797;SDS011;5956;51.428;6.682;2023-03-01T09:05:30;13.07;;;9.07;;
11797;SDS011;5956;51.428;6.682;2023-03-01T09:07:57;11.17;;;8.80;;
11797;SDS011;5956;51.428;6.682;2023-03-01T09:10:23;12.73;;;10.43;;
11797;SDS011;5956;51.428;6.682;2023-03-01T09:12:51;15.03;;;9.80;;
11797;SDS011;5956;51.428;6.682;2023-03-01T09:15:18;13.90;;;9.70;;
11797;SDS011;5956;51.428;6.682;2023-03-01T09:17:44;10.93;;;9.20;;
11797;SDS011;5956;51.428;6.682;2023-03-01T09:20:13;11.00;;;8.53;;
11797;SDS011;5956;51.428;6.682;2023-03-01T09:22:40;10.10;;;8.63;;
11797;SDS011;5956;51.428;6.682;2023-03-01T09:25:06;9.60;;;8.60;;
11797;SDS011;5956;51.428;6.682;2023-03-01T09:27:34;10.13;;;9.13;;
11797;SDS011;5956;51.428;6.682;2023-03-01T09:30:01;10.77;;;8.10;;
11797;SDS011;5956;51.428;6.682;2023-03-01T09:32:29;13.43;;;8.93;;
11797;SDS011;5956;51.428;6.682;2023-03-01T09:34:56;9.77;;;8.77;;
11797;SDS011;5956;51.428;6.682;2023-03-01T09:37:32;10.03;;;8.67;;
11797;SDS011;5956;51.428;6.682;2023-03-01T09:39:59;9.00;;;8.10;;
11797;SDS011;5956;51.428;6.682;2023-03-01T09:42:25;13.23;;;8.70;;
11797;SDS011;5956;51.428;6.682;2023-03-01T09:44:53;9.57;;;8.57;;
11797;SDS011;5956;51.428;6.682;2023-03-01T09:47:23;9.17;;;8.17;;
11797;SDS011;5956;51.428;6.682;2023-03-01T09:49:52;10.57;;;8.43;;
11797;SDS011;5956;51.428;6.682;2023-03-01T09:52:25;9.20;;;8.30;;
11797;SDS011;5956;51.428;6.682;2023-03-01T09:54:55;11.20;;;8.40;;
11797;SDS011;5956;51.428;6.682;2023-03-01T09:57:26;11.07;;;8.63;;
11797;SDS011;5956;51.428;6.682;2023-03-01T10:00:00;10.10;;;8.87;;
11797;SDS011;5956;51.428;6.682;2023-03-01T10:02:31;9.23;;;8.23;;
11797;SDS011;5956;51.428;6.682;2023-03-01T10:05:04;9.83;;;8.63;;
11797;SDS011;5956;51.428;6.682;2023-03-01T10:07:32;8.93;;;8.00;;
11797;SDS011;5956;51.428;6.682;2023-03-01T10:10:06;12.17;;;8.37;;
11797;SDS011;5956;51.428;6.682;2023-03-01T10:12:34;8.67;;;7.83;;
11797;SDS011;5956;51.428;6.682;2023-03-01T10:15:03;8.97;;;8.07;;
11797;SDS011;5956;51.428;6.682;2023-03-01T10:17:32;9.00;;;7.93;;
11797;SDS011;5956;51.428;6.682;2023-03-01T10:20:09;9.23;;;8.30;;
11797;SDS011;5956;51.428;6.682;2023-03-01T10:22:36;11.33;;;8.60;;
11797;SDS011;5956;51.428;6.682;2023-03-01T10:25:04;9.43;;;8.53;;
11797;SDS011;5956;51.428;6.682;2023-03-01T10:27:34;9.67;;;8.73;;
11797;SDS011;5956;51.428;6.682;2023-03-01T10:30:04;10.63;;;8.00;;
11797;SDS011;5956;51.428;6.682;2023-03-01T10:32:32;7.70;;;6.90;;
11797;SDS011;5956;51.428;6.682;2023-03-01T10:34:59;7.87;;;7.07;;
11797;SDS011;5956;51.428;6.682;2023-03-01T10:37:25;8.53;;;7.73;;
11797;SDS011;5956;51.428;6.682;2023-03-01T10:39:54;7.83;;;7.13;;
11797;SDS011;5956;51.428;6.682;2023-03-01T10:42:22;11.73;;;7.80;;
11797;SDS011;5956;51.428;6.682;2023-03-01T10:44:52;8.47;;;7.57;;
11797;SDS011;5956;51.428;6.682;2023-03-01T10:47:20;9.97;;;7.60;;
11797;SDS011;5956;51.428;6.682;2023-03-01T10:49:51;9.47;;;7.93;;
11797;SDS011;5956;51.428;6.682;2023-03-01T10:52:18;7.87;;;7.00;;
11797;SDS011;5956;51.428;6.682;2023-03-01T10:54:50;8.97;;;7.47;;
11797;SDS011;5956;51.428;6.682;2023-03-01T10:57:24;6.87;;;6.10;;
11797;SDS011;5956;51.428;6.682;2023-03-01T11:00:02;7.87;;;6.97;;
11797;SDS011;5956;51.428;6.682;2023-03-01T11:02:30;7.97;;;6.73;;
11797;SDS011;5956;51.428;6.682;2023-03-01T11:04:58;7.63;;;6.87;;
11797;SDS011;5956;51.428;6.682;2023-03-01T11:07:25;7.23;;;6.53;;
11797;SDS011;5956;51.428;6.682;2023-03-01T11:09:52;8.50;;;6.60;;
11797;SDS011;5956;51.428;6.682;2023-03-01T11:12:19;7.93;;;6.40;;
11797;SDS011;5956;51.428;6.682;2023-03-01T11:14:46;7.17;;;6.40;;
11797;SDS011;5956;51.428;6.682;2023-03-01T11:17:15;6.73;;;6.20;;
11797;SDS011;5956;51.428;6.682;2023-03-01T11:19:42;8.27;;;7.10;;
11797;SDS011;5956;51.428;6.682;2023-03-01T11:22:12;10.77;;;7.10;;
11797;SDS011;5956;51.428;6.682;2023-03-01T11:24:40;6.90;;;6.20;;
11797;SDS011;5956;51.428;6.682;2023-03-01T11:27:12;6.70;;;6.10;;
11797;SDS011;5956;51.428;6.682;2023-03-01T11:29:40;6.80;;;6.20;;
11797;SDS011;5956;51.428;6.682;2023-03-01T11:32:08;7.93;;;6.47;;
11797;SDS011;5956;51.428;6.682;2023-03-01T11:34:40;7.27;;;6.67;;
11797;SDS011;5956;51.428;6.682;2023-03-01T11:37:11;9.50;;;6.57;;
11797;SDS011;5956;51.428;6.682;2023-03-01T11:39:41;7.83;;;6.70;;
11797;SDS011;5956;51.428;6.682;2023-03-01T11:42:11;6.78;;;6.15;;
11797;SDS011;5956;51.428;6.682;2023-03-01T11:44:39;6.80;;;6.20;;
11797;SDS011;5956;51.428;6.682;2023-03-01T11:47:12;7.30;;;6.27;;
11797;SDS011;5956;51.428;6.682;2023-03-01T11:49:48;7.43;;;6.73;;
11797;SDS011;5956;51.428;6.682;2023-03-01T11:52:21;8.27;;;6.40;;
11797;SDS011;5956;51.428;6.682;2023-03-01T11:54:52;6.67;;;6.07;;
11797;SDS011;5956;51.428;6.682;2023-03-01T11:57:26;7.43;;;6.73;;
11797;SDS011;5956;51.428;6.682;2023-03-01T11:59:59;6.97;;;6.30;;
11797;SDS011;5956;51.428;6.682;2023-03-01T12:02:36;6.20;;;5.70;;
11797;SDS011;5956;51.428;6.682;2023-03-01T12:05:13;7.63;;;6.47;;
11797;SDS011;5956;51.428;6.682;2023-03-01T12:07:44;3.60;;;3.30;;
11797;SDS011;5956;51.428;6.682;2023-03-01T12:10:19;10.30;;;6.10;;
11797;SDS011;5956;51.428;6.682;2023-03-01T12:12:50;6.83;;;6.23;;
11797;SDS011;5956;51.428;6.682;2023-03-01T12:15:23;8.03;;;6.20;;
11797;SDS011;5956;51.428;6.682;2023-03-01T12:18:03;7.20;;;6.50;;
11797;SDS011;5956;51.428;6.682;2023-03-01T12:20:34;6.40;;;5.90;;
11797;SDS011;5956;51.428;6.682;2023-03-01T12:23:11;7.55;;;6.60;;
11797;SDS011;5956;51.428;6.682;2023-03-01T12:25:43;7.15;;;6.10;;
11797;SDS011;5956;51.428;6.682;2023-03-01T12:28:16;7.00;;;6.40;;
11797;SDS011;5956;51.428;6.682;2023-03-01T12:30:49;7.10;;;6.40;;
11797;SDS011;5956;51.428;6.682;2023-03-01T12:33:21;7.47;;;6.83;;
11797;SDS011;5956;51.428;6.682;2023-03-01T12:35:54;7.20;;;6.60;;
11797;SDS011;5956;51.428;6.682;2023-03-01T12:38:26;7.53;;;6.82;;
11797;SDS011;5956;51.428;6.682;2023-03-01T12:48:41;8.23;;;7.32;;
11797;SDS011;5956;51.428;6.682;2023-03-01T12:51:10;7.40;;;6.60;;
11797;SDS011;5956;51.428;6.682;2023-03-01T12:53:39;7.22;;;6.07;;
11797;SDS011;5956;51.428;6.682;2023-03-01T12:56:07;6.32;;;5.78;;
11797;SDS011;5956;51.428;6.682;2023-03-01T12:58:39;7.97;;;6.43;;
11797;SDS011;5956;51.428;6.682;2023-03-01T13:01:10;8.20;;;6.55;;
11797;SDS011;5956;51.428;6.682;2023-03-01T13:03:47;10.00;;;6.68;;
11797;SDS011;5956;51.428;6.682;2023-03-01T13:06:17;7.20;;;6.60;;
11797;SDS011;5956;51.428;6.682;2023-03-01T13:08:47;7.38;;;6.72;;
11797;SDS011;5956;51.428;6.682;2023-03-01T13:11:15;9.18;;;6.63;;
11797;SDS011;5956;51.428;6.682;2023-03-01T13:13:43;7.10;;;6.45;;
11797;SDS011;5956;51.428;6.682;2023-03-01T13:16:20;8.45;;;7.05;;
11797;SDS011;5956;51.428;6.682;2023-03-01T13:18:47;7.97;;;7.00;;
11797;SDS011;5956;51.428;6.682;2023-03-01T13:21:14;6.80;;;6.20;;
11797;SDS011;5956;51.428;6.682;2023-03-01T13:23:56;6.93;;;6.35;;
11797;SDS011;5956;51.428;6.682;2023-03-01T13:26:23;7.13;;;6.43;;
11797;SDS011;5956;51.428;6.682;2023-03-01T13:28:50;6.28;;;5.68;;
11797;SDS011;5956;51.428;6.682;2023-03-01T13:33:59;6.95;;;5.78;;
11797;SDS011;5956;51.428;6.682;2023-03-01T13:39:25;6.88;;;6.22;;
11797;SDS011;5956;51.428;6.682;2023-03-01T13:41:53;9.15;;;6.32;;
11797;SDS011;5956;51.428;6.682;2023-03-01T13:44:24;7.72;;;6.28;;
11797;SDS011;5956;51.428;6.682;2023-03-01T13:46:56;7.60;;;6.40;;
11797;SDS011;5956;51.428;6.682;2023-03-01T13:49:25;7.20;;;6.50;;
11797;SDS011;5956;51.428;6.682;2023-03-01T13:51:54;6.80;;;6.20;;
11797;SDS011;5956;51.428;6.682;2023-03-01T13:54:24;6.53;;;6.03;;
11797;SDS011;5956;51.428;6.682;2023-03-01T13:56:51;6.40;;;5.90;;
11797;SDS011;5956;51.428;6.682;2023-03-01T13:59:20;6.30;;;5.78;;
11797;SDS011;5956;51.428;6.682;2023-03-01T14:01:51;6.32;;;5.82;;
11797;SDS011;5956;51.428;6.682;2023-03-01T14:04:19;6.60;;;6.10;;
11797;SDS011;5956;51.428;6.682;2023-03-01T14:06:46;7.82;;;7.10;;
11797;SDS011;5956;51.428;6.682;2023-03-01T14:09:14;7.88;;;6.70;;
11797;SDS011;5956;51.428;6.682;2023-03-01T14:11:55;7.22;;;5.93;;
11797;SDS011;5956;51.428;6.682;2023-03-01T14:14:38;7.72;;;6.60;;
11797;SDS011;5956;51.428;6.682;2023-03-01T14:17:10;7.32;;;6.72;;
11797;SDS011;5956;51.428;6.682;2023-03-01T14:19:41;7.88;;;7.18;;
11797;SDS011;5956;51.428;6.682;2023-03-01T14:22:13;7.95;;;7.25;;
11797;SDS011;5956;51.428;6.682;2023-03-01T14:24:44;7.43;;;6.72;;
11797;SDS011;5956;51.428;6.682;2023-03-01T14:27:13;6.97;;;6.38;;
11797;SDS011;5956;51.428;6.682;2023-03-01T14:29:40;6.30;;;5.72;;
11797;SDS011;5956;51.428;6.682;2023-03-01T14:32:08;6.47;;;5.88;;
11797;SDS011;5956;51.428;6.682;2023-03-01T14:34:35;7.40;;;6.70;;
11797;SDS011;5956;51.428;6.682;2023-03-01T14:37:09;7.43;;;6.73;;
11797;SDS011;5956;51.428;6.682;2023-03-01T14:39:36;8.00;;;6.50;;
11797;SDS011;5956;51.428;6.682;2023-03-01T14:42:03;7.47;;;6.73;;
11797;SDS011;5956;51.428;6.682;2023-03-01T14:44:32;7.00;;;6.40;;
11797;SDS011;5956;51.428;6.682;2023-03-01T14:47:02;8.45;;;7.18;;
11797;SDS011;5956;51.428;6.682;2023-03-01T14:49:30;7.60;;;6.90;;
11797;SDS011;5956;51.428;6.682;2023-03-01T14:51:57;7.22;;;6.63;;
11797;SDS011;5956;51.428;6.682;2023-03-01T14:54:27;7.50;;;6.80;;
11797;SDS011;5956;51.428;6.682;2023-03-01T14:56:57;7.88;;;7.05;;
11797;SDS011;5956;51.428;6.682;2023-03-01T14:59:24;8.52;;;7.70;;
11797;SDS011;5956;51.428;6.682;2023-03-01T15:01:53;8.05;;;7.20;;
11797;SDS011;5956;51.428;6.682;2023-03-01T15:04:20;8.27;;;7.47;;
11797;SDS011;5956;51.428;6.682;2023-03-01T15:06:47;8.13;;;7.30;;
11797;SDS011;5956;51.428;6.682;2023-03-01T15:09:16;8.23;;;7.10;;
11797;SDS011;5956;51.428;6.682;2023-03-01T15:11:43;8.27;;;7.37;;
11797;SDS011;5956;51.428;6.682;2023-03-01T15:16:53;10.10;;;7.80;;
11797;SDS011;5956;51.428;6.682;2023-03-01T15:19:19;7.70;;;6.90;;